sensor_id;sensor_type;location;lat;lon;timestamp;temperature;humidity
25250;DHT22;13201;51.148;13.738;2024-02-14T00:02:24;4.30;99.90
25250;DHT22;13201;51.148;13.738;2024-02-14T00:04:53;4.20;99.90
25250;DHT22;13201;51.148;13.738;2024-02-14T00:07:19;4.20;99.90
25250;DHT22;13201;51.148;13.738;2024-02-14T00:09:45;4.20;99.90
25250;DHT22;13201;51.148;13.738;2024-02-14T00:12:11;4.20;99.90
25250;DHT22;13201;51.148;13.738;2024-02-14T00:14:37;4.20;99.90
25250;DHT22;13201;51.148;13.738;2024-02-14T00:17:04;4.20;99.90
25250;DHT22;13201;51.148;13.738;2024-02-14T00:19:31;4.30;99.90
25250;DHT22;13201;51.148;13.738;2024-02-14T00:21:57;4.30;99.90
25250;DHT22;13201;51.148;13.738;2024-02-14T00:24:22;4.40;99.90
25250;DHT22;13201;51.148;13.738;2024-02-14T00:26:50;4.40;99.90
25250;DHT22;13201;51.148;13.738;2024-02-14T00:29:15;4.50;99.90
25250;DHT22;13201;51.148;13.738;2024-02-14T00:31:41;4.70;99.90
25250;DHT22;13201;51.148;13.738;2024-02-14T00:34:09;4.80;99.90
25250;DHT22;13201;51.148;13.738;2024-02-14T00:36:35;4.90;99.90
25250;DHT22;13201;51.148;13.738;2024-02-14T00:39:01;5.00;99.90
25250;DHT22;13201;51.148;13.738;2024-02-14T00:41:26;5.10;99.90
25250;DHT22;13201;51.148;13.738;2024-02-14T00:43:55;5.20;99.90
25250;DHT22;13201;51.148;13.738;2024-02-14T00:46:22;5.20;99.90
25250;DHT22;13201;51.148;13.738;2024-02-14T00:48:47;5.30;99.90
25250;DHT22;13201;51.148;13.738;2024-02-14T00:51:13;5.30;99.90
25250;DHT22;13201;51.148;13.738;2024-02-14T00:53:39;5.30;99.90
25250;DHT22;13201;51.148;13.738;2024-02-14T00:56:05;5.30;99.90
25250;DHT22;13201;51.148;13.738;2024-02-14T00:58:31;5.30;99.90
25250;DHT22;13201;51.148;13.738;2024-02-14T01:00:57;5.30;99.90
25250;DHT22;13201;51.148;13.738;2024-02-14T01:27:59;4.50;99.90
25250;DHT22;13201;51.148;13.738;2024-02-14T01:30:25;4.50;99.90
25250;DHT22;13201;51.148;13.738;2024-02-14T01:32:52;4.60;99.90
25250;DHT22;13201;51.148;13.738;2024-02-14T01:35:18;4.70;99.90
25250;DHT22;13201;51.148;13.738;2024-02-14T01:37:44;4.90;99.90
25250;DHT22;13201;51.148;13.738;2024-02-14T01:40:11;4.90;99.90
25250;DHT22;13201;51.148;13.738;2024-02-14T01:42:36;4.90;99.90
25250;DHT22;13201;51.148;13.738;2024-02-14T01:45:02;4.90;99.90
25250;DHT22;13201;51.148;13.738;2024-02-14T01:47:28;5.00;99.90
25250;DHT22;13201;51.148;13.738;2024-02-14T01:49:54;5.00;99.90
25250;DHT22;13201;51.148;13.738;2024-02-14T01:52:20;5.10;99.90
25250;DHT22;13201;51.148;13.738;2024-02-14T01:54:48;5.20;99.90
25250;DHT22;13201;51.148;13.738;2024-02-14T01:57:14;5.20;99.90
25250;DHT22;13201;51.148;13.738;2024-02-14T01:59:40;5.20;99.90
25250;DHT22;13201;51.148;13.738;2024-02-14T02:02:06;5.20;99.90
25250;DHT22;13201;51.148;13.738;2024-02-14T02:04:35;5.10;99.90
25250;DHT22;13201;51.148;13.738;2024-02-14T02:07:01;5.00;99.90
25250;DHT22;13201;51.148;13.738;2024-02-14T02:09:27;5.20;99.90
25250;DHT22;13201;51.148;13.738;2024-02-14T02:11:53;5.20;99.90
25250;DHT22;13201;51.148;13.738;2024-02-14T02:14:21;5.10;99.90
25250;DHT22;13201;51.148;13.738;2024-02-14T02:16:48;5.10;99.90
25250;DHT22;13201;51.148;13.738;2024-02-14T02:19:14;5.10;99.90
25250;DHT22;13201;51.148;13.738;2024-02-14T02:21:44;5.00;99.90
25250;DHT22;13201;51.148;13.738;2024-02-14T02:24:11;5.10;99.90
25250;DHT22;13201;51.148;13.738;2024-02-14T02:26:37;5.10;99.90
25250;DHT22;13201;51.148;13.738;2024-02-14T02:29:03;5.00;99.90
25250;DHT22;13201;51.148;13.738;2024-02-14T02:31:30;5.00;99.90
25250;DHT22;13201;51.148;13.738;2024-02-14T02:33:56;5.10;99.90
25250;DHT22;13201;51.148;13.738;2024-02-14T02:36:22;5.20;99.90
25250;DHT22;13201;51.148;13.738;2024-02-14T02:38:49;5.20;99.90
25250;DHT22;13201;51.148;13.738;2024-02-14T02:41:15;5.10;99.90
25250;DHT22;13201;51.148;13.738;2024-02-14T02:43:41;5.10;99.90
25250;DHT22;13201;51.148;13.738;2024-02-14T02:46:09;5.10;99.90
25250;DHT22;13201;51.148;13.738;2024-02-14T02:48:35;5.10;99.90
25250;DHT22;13201;51.148;13.738;2024-02-14T02:51:01;5.10;99.90
25250;DHT22;13201;51.148;13.738;2024-02-14T02:53:27;5.20;99.90
25250;DHT22;13201;51.148;13.738;2024-02-14T02:55:53;5.20;99.90
25250;DHT22;13201;51.148;13.738;2024-02-14T02:58:20;5.20;99.90
25250;DHT22;13201;51.148;13.738;2024-02-14T03:00:46;5.20;99.90
25250;DHT22;13201;51.148;13.738;2024-02-14T03:03:14;5.10;99.90
25250;DHT22;13201;51.148;13.738;2024-02-14T03:05:41;5.10;99.90
25250;DHT22;13201;51.148;13.738;2024-02-14T03:08:10;5.10;99.90
25250;DHT22;13201;51.148;13.738;2024-02-14T03:10:39;5.10;99.90
25250;DHT22;13201;51.148;13.738;2024-02-14T03:13:06;5.20;99.90
25250;DHT22;13201;51.148;13.738;2024-02-14T03:15:34;5.30;99.90
25250;DHT22;13201;51.148;13.738;2024-02-14T03:18:01;5.40;99.90
25250;DHT22;13201;51.148;13.738;2024-02-14T03:20:26;5.40;99.90
25250;DHT22;13201;51.148;13.738;2024-02-14T03:22:54;5.50;99.90
25250;DHT22;13201;51.148;13.738;2024-02-14T03:25:20;5.40;99.90
25250;DHT22;13201;51.148;13.738;2024-02-14T03:27:47;5.60;99.90
25250;DHT22;13201;51.148;13.738;2024-02-14T03:30:14;5.50;99.90
25250;DHT22;13201;51.148;13.738;2024-02-14T03:32:43;5.40;99.90
25250;DHT22;13201;51.148;13.738;2024-02-14T03:35:08;5.40;99.90
25250;DHT22;13201;51.148;13.738;2024-02-14T03:37:37;5.50;99.90
25250;DHT22;13201;51.148;13.738;2024-02-14T03:40:05;5.40;99.90
25250;DHT22;13201;51.148;13.738;2024-02-14T03:42:32;5.40;99.90
25250;DHT22;13201;51.148;13.738;2024-02-14T03:44:58;5.50;99.90
25250;DHT22;13201;51.148;13.738;2024-02-14T03:47:34;5.50;99.90
25250;DHT22;13201;51.148;13.738;2024-02-14T03:50:01;5.50;99.90
25250;DHT22;13201;51.148;13.738;2024-02-14T03:52:30;5.50;99.90
25250;DHT22;13201;51.148;13.738;2024-02-14T03:54:58;5.60;99.90
25250;DHT22;13201;51.148;13.738;2024-02-14T03:57:25;5.50;99.90
25250;DHT22;13201;51.148;13.738;2024-02-14T03:59:52;5.40;99.90
25250;DHT22;13201;51.148;13.738;2024-02-14T04:02:18;5.50;99.90
25250;DHT22;13201;51.148;13.738;2024-02-14T04:04:44;5.50;99.90
25250;DHT22;13201;51.148;13.738;2024-02-14T04:07:12;5.50;99.90
25250;DHT22;13201;51.148;13.738;2024-02-14T04:09:38;5.60;99.90
25250;DHT22;13201;51.148;13.738;2024-02-14T04:12:04;5.70;99.90
25250;DHT22;13201;51.148;13.738;2024-02-14T04:14:31;5.70;99.90
25250;DHT22;13201;51.148;13.738;2024-02-14T04:16:56;5.70;99.90
25250;DHT22;13201;51.148;13.738;2024-02-14T04:19:22;5.80;99.90
25250;DHT22;13201;51.148;13.738;2024-02-14T04:21:48;5.80;99.90
25250;DHT22;13201;51.148;13.738;2024-02-14T04:24:14;5.90;99.90
25250;DHT22;13201;51.148;13.738;2024-02-14T04:26:40;5.90;99.90
25250;DHT22;13201;51.148;13.738;2024-02-14T04:29:05;5.80;99.90
25250;DHT22;13201;51.148;13.738;2024-02-14T04:31:31;5.90;99.90
25250;DHT22;13201;51.148;13.738;2024-02-14T04:33:57;5.90;99.90
25250;DHT22;13201;51.148;13.738;2024-02-14T04:36:23;5.90;99.90
25250;DHT22;13201;51.148;13.738;2024-02-14T04:38:49;6.00;99.90
25250;DHT22;13201;51.148;13.738;2024-02-14T04:41:15;6.00;99.90
25250;DHT22;13201;51.148;13.738;2024-02-14T04:43:41;6.00;99.90
25250;DHT22;13201;51.148;13.738;2024-02-14T04:46:07;6.10;99.90
25250;DHT22;13201;51.148;13.738;2024-02-14T04:48:34;6.00;99.90
25250;DHT22;13201;51.148;13.738;2024-02-14T04:51:01;6.10;99.90
25250;DHT22;13201;51.148;13.738;2024-02-14T04:53:26;6.10;99.90
25250;DHT22;13201;51.148;13.738;2024-02-14T04:55:53;5.90;99.90
25250;DHT22;13201;51.148;13.738;2024-02-14T04:58:19;6.00;99.90
25250;DHT22;13201;51.148;13.738;2024-02-14T05:00:45;5.90;99.90
25250;DHT22;13201;51.148;13.738;2024-02-14T05:03:10;5.90;99.90
25250;DHT22;13201;51.148;13.738;2024-02-14T05:05:36;6.00;99.90
25250;DHT22;13201;51.148;13.738;2024-02-14T05:08:03;6.10;99.90
25250;DHT22;13201;51.148;13.738;2024-02-14T05:10:30;6.10;99.90
25250;DHT22;13201;51.148;13.738;2024-02-14T05:12:57;6.00;99.90
25250;DHT22;13201;51.148;13.738;2024-02-14T05:15:23;6.00;99.90
25250;DHT22;13201;51.148;13.738;2024-02-14T05:17:49;5.90;99.90
25250;DHT22;13201;51.148;13.738;2024-02-14T05:20:16;5.80;99.90
25250;DHT22;13201;51.148;13.738;2024-02-14T05:22:41;5.80;99.90
25250;DHT22;13201;51.148;13.738;2024-02-14T05:25:08;5.60;99.90
25250;DHT22;13201;51.148;13.738;2024-02-14T05:27:34;5.60;99.90
25250;DHT22;13201;51.148;13.738;2024-02-14T05:30:01;5.80;99.90
25250;DHT22;13201;51.148;13.738;2024-02-14T05:32:26;5.70;99.90
25250;DHT22;13201;51.148;13.738;2024-02-14T05:34:52;5.70;99.90
25250;DHT22;13201;51.148;13.738;2024-02-14T05:37:18;5.70;99.90
25250;DHT22;13201;51.148;13.738;2024-02-14T05:39:44;5.90;99.90
25250;DHT22;13201;51.148;13.738;2024-02-14T05:42:09;5.90;99.90
25250;DHT22;13201;51.148;13.738;2024-02-14T05:44:35;5.90;99.90
25250;DHT22;13201;51.148;13.738;2024-02-14T05:47:01;5.90;99.90
25250;DHT22;13201;51.148;13.738;2024-02-14T05:49:26;5.90;99.90
25250;DHT22;13201;51.148;13.738;2024-02-14T05:51:52;5.90;99.90
25250;DHT22;13201;51.148;13.738;2024-02-14T05:54:20;5.80;99.90
25250;DHT22;13201;51.148;13.738;2024-02-14T05:56:46;5.80;99.90
25250;DHT22;13201;51.148;13.738;2024-02-14T05:59:12;5.70;99.90
25250;DHT22;13201;51.148;13.738;2024-02-14T06:01:38;5.70;99.90
25250;DHT22;13201;51.148;13.738;2024-02-14T06:04:04;5.80;99.90
25250;DHT22;13201;51.148;13.738;2024-02-14T06:06:29;5.70;99.90
25250;DHT22;13201;51.148;13.738;2024-02-14T06:08:55;5.80;99.90
25250;DHT22;13201;51.148;13.738;2024-02-14T06:11:23;5.80;99.90
25250;DHT22;13201;51.148;13.738;2024-02-14T06:13:48;5.90;99.90
25250;DHT22;13201;51.148;13.738;2024-02-14T06:16:14;5.90;99.90
25250;DHT22;13201;51.148;13.738;2024-02-14T06:18:40;5.90;99.90
25250;DHT22;13201;51.148;13.738;2024-02-14T06:21:06;6.00;99.90
25250;DHT22;13201;51.148;13.738;2024-02-14T06:23:32;6.00;99.90
25250;DHT22;13201;51.148;13.738;2024-02-14T06:25:58;6.00;99.90
25250;DHT22;13201;51.148;13.738;2024-02-14T06:28:24;6.00;99.90
25250;DHT22;13201;51.148;13.738;2024-02-14T06:30:50;6.00;99.90
25250;DHT22;13201;51.148;13.738;2024-02-14T06:33:15;6.00;99.90
25250;DHT22;13201;51.148;13.738;2024-02-14T06:35:41;6.10;99.90
25250;DHT22;13201;51.148;13.738;2024-02-14T06:38:07;6.10;99.90
25250;DHT22;13201;51.148;13.738;2024-02-14T06:40:33;6.10;99.90
25250;DHT22;13201;51.148;13.738;2024-02-14T06:42:59;6.20;99.90
25250;DHT22;13201;51.148;13.738;2024-02-14T06:45:28;6.20;99.90
25250;DHT22;13201;51.148;13.738;2024-02-14T06:47:54;6.10;99.90
25250;DHT22;13201;51.148;13.738;2024-02-14T06:50:20;6.20;99.90
25250;DHT22;13201;51.148;13.738;2024-02-14T06:52:46;6.20;99.90
25250;DHT22;13201;51.148;13.738;2024-02-14T06:55:11;6.30;99.90
25250;DHT22;13201;51.148;13.738;2024-02-14T06:57:38;6.30;99.90
25250;DHT22;13201;51.148;13.738;2024-02-14T07:00:04;6.30;99.90
25250;DHT22;13201;51.148;13.738;2024-02-14T07:02:34;6.40;99.90
25250;DHT22;13201;51.148;13.738;2024-02-14T07:04:59;6.40;99.90
25250;DHT22;13201;51.148;13.738;2024-02-14T07:07:25;6.40;99.90
25250;DHT22;13201;51.148;13.738;2024-02-14T07:09:51;6.40;99.90
25250;DHT22;13201;51.148;13.738;2024-02-14T07:12:17;6.40;99.90
25250;DHT22;13201;51.148;13.738;2024-02-14T07:14:42;6.50;99.90
25250;DHT22;13201;51.148;13.738;2024-02-14T07:17:08;6.50;99.90
25250;DHT22;13201;51.148;13.738;2024-02-14T07:19:33;6.60;99.90
25250;DHT22;13201;51.148;13.738;2024-02-14T07:21:59;6.60;99.90
25250;DHT22;13201;51.148;13.738;2024-02-14T07:24:25;6.60;99.90
25250;DHT22;13201;51.148;13.738;2024-02-14T07:26:50;6.70;99.90
25250;DHT22;13201;51.148;13.738;2024-02-14T07:29:16;6.80;99.90
25250;DHT22;13201;51.148;13.738;2024-02-14T07:31:42;6.90;99.90
25250;DHT22;13201;51.148;13.738;2024-02-14T07:34:07;7.00;99.90
25250;DHT22;13201;51.148;13.738;2024-02-14T07:36:33;7.00;99.90
25250;DHT22;13201;51.148;13.738;2024-02-14T07:38:59;7.00;99.90
25250;DHT22;13201;51.148;13.738;2024-02-14T07:41:24;7.00;99.90
25250;DHT22;13201;51.148;13.738;2024-02-14T07:43:50;7.20;99.90
25250;DHT22;13201;51.148;13.738;2024-02-14T07:46:20;7.20;99.90
25250;DHT22;13201;51.148;13.738;2024-02-14T07:48:45;7.30;99.90
25250;DHT22;13201;51.148;13.738;2024-02-14T07:51:12;7.40;99.90
25250;DHT22;13201;51.148;13.738;2024-02-14T07:53:37;7.40;99.90
25250;DHT22;13201;51.148;13.738;2024-02-14T07:56:03;7.50;99.90
25250;DHT22;13201;51.148;13.738;2024-02-14T07:58:29;7.50;99.90
25250;DHT22;13201;51.148;13.738;2024-02-14T08:00:54;7.50;99.90
25250;DHT22;13201;51.148;13.738;2024-02-14T08:03:20;7.60;99.90
25250;DHT22;13201;51.148;13.738;2024-02-14T08:05:46;7.80;99.90
25250;DHT22;13201;51.148;13.738;2024-02-14T08:08:12;7.80;99.90
25250;DHT22;13201;51.148;13.738;2024-02-14T08:10:37;7.90;99.90
25250;DHT22;13201;51.148;13.738;2024-02-14T08:13:04;8.00;99.90
25250;DHT22;13201;51.148;13.738;2024-02-14T08:15:30;8.10;99.90
25250;DHT22;13201;51.148;13.738;2024-02-14T08:17:55;8.20;99.90
25250;DHT22;13201;51.148;13.738;2024-02-14T08:20:22;8.30;99.90
25250;DHT22;13201;51.148;13.738;2024-02-14T08:22:49;8.30;99.90
25250;DHT22;13201;51.148;13.738;2024-02-14T08:25:15;8.50;99.90
25250;DHT22;13201;51.148;13.738;2024-02-14T08:27:41;8.50;99.90
25250;DHT22;13201;51.148;13.738;2024-02-14T08:30:07;8.60;99.90
25250;DHT22;13201;51.148;13.738;2024-02-14T08:32:34;8.60;99.90
25250;DHT22;13201;51.148;13.738;2024-02-14T08:35:00;8.60;99.90
25250;DHT22;13201;51.148;13.738;2024-02-14T08:37:27;8.70;99.90
25250;DHT22;13201;51.148;13.738;2024-02-14T08:39:53;8.80;99.90
25250;DHT22;13201;51.148;13.738;2024-02-14T08:42:18;8.80;99.90
25250;DHT22;13201;51.148;13.738;2024-02-14T08:44:44;8.80;99.90
25250;DHT22;13201;51.148;13.738;2024-02-14T08:47:10;8.80;99.90
25250;DHT22;13201;51.148;13.738;2024-02-14T08:49:36;8.70;99.90
25250;DHT22;13201;51.148;13.738;2024-02-14T08:52:02;8.80;99.90
25250;DHT22;13201;51.148;13.738;2024-02-14T08:54:28;8.90;99.90
25250;DHT22;13201;51.148;13.738;2024-02-14T08:56:54;8.90;99.90
25250;DHT22;13201;51.148;13.738;2024-02-14T08:59:21;8.90;99.90
25250;DHT22;13201;51.148;13.738;2024-02-14T09:01:47;8.90;99.90
25250;DHT22;13201;51.148;13.738;2024-02-14T09:04:13;9.00;99.90
25250;DHT22;13201;51.148;13.738;2024-02-14T09:06:39;9.10;99.90
25250;DHT22;13201;51.148;13.738;2024-02-14T09:09:07;9.10;99.90
25250;DHT22;13201;51.148;13.738;2024-02-14T09:11:35;9.20;99.90
25250;DHT22;13201;51.148;13.738;2024-02-14T09:14:02;9.30;99.90
25250;DHT22;13201;51.148;13.738;2024-02-14T09:16:34;9.40;99.90
25250;DHT22;13201;51.148;13.738;2024-02-14T09:19:00;9.60;99.90
25250;DHT22;13201;51.148;13.738;2024-02-14T09:21:27;9.60;99.90
25250;DHT22;13201;51.148;13.738;2024-02-14T09:23:55;9.60;99.90
25250;DHT22;13201;51.148;13.738;2024-02-14T09:26:21;9.50;99.90
25250;DHT22;13201;51.148;13.738;2024-02-14T09:28:47;9.60;99.90
25250;DHT22;13201;51.148;13.738;2024-02-14T09:31:18;9.70;99.90
25250;DHT22;13201;51.148;13.738;2024-02-14T09:33:46;9.70;99.90
25250;DHT22;13201;51.148;13.738;2024-02-14T09:36:13;9.80;99.90
25250;DHT22;13201;51.148;13.738;2024-02-14T09:38:40;9.80;99.90
25250;DHT22;13201;51.148;13.738;2024-02-14T09:41:30;9.70;99.90
25250;DHT22;13201;51.148;13.738;2024-02-14T09:43:59;9.70;99.90
25250;DHT22;13201;51.148;13.738;2024-02-14T09:46:25;9.70;99.90
25250;DHT22;13201;51.148;13.738;2024-02-14T09:48:53;9.70;99.90
25250;DHT22;13201;51.148;13.738;2024-02-14T09:51:20;9.80;99.90
25250;DHT22;13201;51.148;13.738;2024-02-14T09:53:46;9.90;99.90
25250;DHT22;13201;51.148;13.738;2024-02-14T09:56:14;9.80;99.90
25250;DHT22;13201;51.148;13.738;2024-02-14T09:58:42;9.80;99.90
25250;DHT22;13201;51.148;13.738;2024-02-14T10:01:08;9.80;99.90
25250;DHT22;13201;51.148;13.738;2024-02-14T10:03:34;9.70;99.90
25250;DHT22;13201;51.148;13.738;2024-02-14T10:06:01;9.80;99.90
25250;DHT22;13201;51.148;13.738;2024-02-14T10:08:27;9.70;99.90
25250;DHT22;13201;51.148;13.738;2024-02-14T10:10:56;9.80;99.90
25250;DHT22;13201;51.148;13.738;2024-02-14T10:13:21;9.90;99.90
25250;DHT22;13201;51.148;13.738;2024-02-14T10:15:48;9.90;99.90
25250;DHT22;13201;51.148;13.738;2024-02-14T10:18:14;10.00;99.90
25250;DHT22;13201;51.148;13.738;2024-02-14T10:20:51;10.10;99.90
25250;DHT22;13201;51.148;13.738;2024-02-14T10:23:17;10.20;99.90
25250;DHT22;13201;51.148;13.738;2024-02-14T10:25:43;10.20;99.90
25250;DHT22;13201;51.148;13.738;2024-02-14T10:28:08;10.30;99.90
25250;DHT22;13201;51.148;13.738;2024-02-14T10:30:36;10.20;99.90
25250;DHT22;13201;51.148;13.738;2024-02-14T10:33:04;10.30;99.90
25250;DHT22;13201;51.148;13.738;2024-02-14T10:35:35;10.20;99.90
25250;DHT22;13201;51.148;13.738;2024-02-14T10:38:02;10.20;99.90
25250;DHT22;13201;51.148;13.738;2024-02-14T10:40:29;10.20;99.90
25250;DHT22;13201;51.148;13.738;2024-02-14T10:42:56;10.30;99.90
25250;DHT22;13201;51.148;13.738;2024-02-14T10:45:26;10.30;99.90
25250;DHT22;13201;51.148;13.738;2024-02-14T10:47:53;10.30;99.90
25250;DHT22;13201;51.148;13.738;2024-02-14T10:50:21;10.40;99.90
25250;DHT22;13201;51.148;13.738;2024-02-14T10:52:48;10.50;99.90
25250;DHT22;13201;51.148;13.738;2024-02-14T10:55:15;10.50;99.90
25250;DHT22;13201;51.148;13.738;2024-02-14T10:57:43;10.60;99.90
25250;DHT22;13201;51.148;13.738;2024-02-14T11:00:12;10.60;99.90
25250;DHT22;13201;51.148;13.738;2024-02-14T11:02:40;10.70;99.90
25250;DHT22;13201;51.148;13.738;2024-02-14T11:05:16;10.80;99.90
25250;DHT22;13201;51.148;13.738;2024-02-14T11:07:45;10.80;99.90
25250;DHT22;13201;51.148;13.738;2024-02-14T11:10:20;10.80;99.90
25250;DHT22;13201;51.148;13.738;2024-02-14T11:12:47;10.80;99.90
25250;DHT22;13201;51.148;13.738;2024-02-14T11:15:19;10.70;99.90
25250;DHT22;13201;51.148;13.738;2024-02-14T11:17:45;10.70;99.90
25250;DHT22;13201;51.148;13.738;2024-02-14T11:20:30;10.80;99.90
25250;DHT22;13201;51.148;13.738;2024-02-14T11:22:57;10.90;99.90
25250;DHT22;13201;51.148;13.738;2024-02-14T11:25:28;11.00;99.90
25250;DHT22;13201;51.148;13.738;2024-02-14T11:27:55;11.00;99.90
25250;DHT22;13201;51.148;13.738;2024-02-14T11:30:29;11.10;99.90
25250;DHT22;13201;51.148;13.738;2024-02-14T11:33:08;11.10;99.90
25250;DHT22;13201;51.148;13.738;2024-02-14T11:35:33;11.20;99.90
25250;DHT22;13201;51.148;13.738;2024-02-14T11:37:59;11.10;99.90
25250;DHT22;13201;51.148;13.738;2024-02-14T11:40:25;11.20;99.90
25250;DHT22;13201;51.148;13.738;2024-02-14T11:42:51;11.20;99.90
25250;DHT22;13201;51.148;13.738;2024-02-14T11:45:17;11.10;99.90
25250;DHT22;13201;51.148;13.738;2024-02-14T11:47:42;11.20;99.90
25250;DHT22;13201;51.148;13.738;2024-02-14T11:50:08;11.10;99.90
25250;DHT22;13201;51.148;13.738;2024-02-14T11:52:36;11.10;99.90
25250;DHT22;13201;51.148;13.738;2024-02-14T11:55:01;11.10;99.90
25250;DHT22;13201;51.148;13.738;2024-02-14T11:57:27;11.00;99.90
25250;DHT22;13201;51.148;13.738;2024-02-14T11:59:53;11.00;99.90
25250;DHT22;13201;51.148;13.738;2024-02-14T12:02:20;11.00;99.90
25250;DHT22;13201;51.148;13.738;2024-02-14T12:04:47;11.00;99.90
25250;DHT22;13201;51.148;13.738;2024-02-14T12:07:13;11.10;99.90
25250;DHT22;13201;51.148;13.738;2024-02-14T12:09:39;11.10;99.90
25250;DHT22;13201;51.148;13.738;2024-02-14T12:12:05;11.20;99.90
25250;DHT22;13201;51.148;13.738;2024-02-14T12:14:32;11.20;99.90
25250;DHT22;13201;51.148;13.738;2024-02-14T12:17:01;11.30;99.90
25250;DHT22;13201;51.148;13.738;2024-02-14T12:19:32;11.50;99.90
25250;DHT22;13201;51.148;13.738;2024-02-14T12:22:00;11.60;99.90
25250;DHT22;13201;51.148;13.738;2024-02-14T12:24:29;11.70;99.90
25250;DHT22;13201;51.148;13.738;2024-02-14T12:26:55;11.80;99.90
25250;DHT22;13201;51.148;13.738;2024-02-14T12:29:23;11.70;99.90
25250;DHT22;13201;51.148;13.738;2024-02-14T12:31:49;11.80;99.90
25250;DHT22;13201;51.148;13.738;2024-02-14T12:34:15;11.90;99.90
25250;DHT22;13201;51.148;13.738;2024-02-14T12:36:40;11.70;99.90
25250;DHT22;13201;51.148;13.738;2024-02-14T12:39:06;11.80;99.90
25250;DHT22;13201;51.148;13.738;2024-02-14T12:41:34;11.80;99.90
25250;DHT22;13201;51.148;13.738;2024-02-14T12:44:02;11.70;99.90
25250;DHT22;13201;51.148;13.738;2024-02-14T12:46:28;11.80;99.90
25250;DHT22;13201;51.148;13.738;2024-02-14T12:48:54;11.60;99.90
25250;DHT22;13201;51.148;13.738;2024-02-14T12:51:20;11.60;99.90
25250;DHT22;13201;51.148;13.738;2024-02-14T12:53:46;11.70;99.90
25250;DHT22;13201;51.148;13.738;2024-02-14T12:56:11;11.90;99.90
25250;DHT22;13201;51.148;13.738;2024-02-14T12:58:37;11.80;99.90
25250;DHT22;13201;51.148;13.738;2024-02-14T13:01:03;11.90;99.90
25250;DHT22;13201;51.148;13.738;2024-02-14T13:03:33;12.00;99.90
25250;DHT22;13201;51.148;13.738;2024-02-14T13:05:59;11.90;99.90
25250;DHT22;13201;51.148;13.738;2024-02-14T13:08:25;11.90;99.90
25250;DHT22;13201;51.148;13.738;2024-02-14T13:10:51;11.90;99.90
25250;DHT22;13201;51.148;13.738;2024-02-14T13:13:16;11.90;99.90
25250;DHT22;13201;51.148;13.738;2024-02-14T13:15:42;11.90;99.90
25250;DHT22;13201;51.148;13.738;2024-02-14T13:18:10;12.00;99.90
25250;DHT22;13201;51.148;13.738;2024-02-14T13:20:36;12.10;99.90
25250;DHT22;13201;51.148;13.738;2024-02-14T13:23:02;12.00;99.90
25250;DHT22;13201;51.148;13.738;2024-02-14T13:25:28;12.00;99.90
25250;DHT22;13201;51.148;13.738;2024-02-14T13:27:54;11.80;99.90
25250;DHT22;13201;51.148;13.738;2024-02-14T13:30:20;11.90;99.90
25250;DHT22;13201;51.148;13.738;2024-02-14T13:32:47;12.00;99.90
25250;DHT22;13201;51.148;13.738;2024-02-14T13:35:12;11.90;99.90
25250;DHT22;13201;51.148;13.738;2024-02-14T13:37:39;12.10;99.90
25250;DHT22;13201;51.148;13.738;2024-02-14T13:40:06;12.10;99.90
25250;DHT22;13201;51.148;13.738;2024-02-14T13:42:36;12.10;99.90
25250;DHT22;13201;51.148;13.738;2024-02-14T13:45:04;12.20;99.90
25250;DHT22;13201;51.148;13.738;2024-02-14T13:47:31;12.10;99.90
25250;DHT22;13201;51.148;13.738;2024-02-14T13:49:57;11.90;99.90
25250;DHT22;13201;51.148;13.738;2024-02-14T13:52:22;11.80;99.90
25250;DHT22;13201;51.148;13.738;2024-02-14T13:54:48;11.90;99.90
25250;DHT22;13201;51.148;13.738;2024-02-14T13:57:14;12.00;99.90
25250;DHT22;13201;51.148;13.738;2024-02-14T13:59:39;11.90;99.90
25250;DHT22;13201;51.148;13.738;2024-02-14T14:02:05;11.90;99.90
25250;DHT22;13201;51.148;13.738;2024-02-14T14:04:31;11.80;99.90
25250;DHT22;13201;51.148;13.738;2024-02-14T14:06:56;11.70;99.90
25250;DHT22;13201;51.148;13.738;2024-02-14T14:09:22;11.70;99.90
25250;DHT22;13201;51.148;13.738;2024-02-14T14:11:48;11.50;99.90
25250;DHT22;13201;51.148;13.738;2024-02-14T14:14:16;11.50;99.90
25250;DHT22;13201;51.148;13.738;2024-02-14T14:16:44;11.60;99.90
25250;DHT22;13201;51.148;13.738;2024-02-14T14:19:10;11.70;99.90
25250;DHT22;13201;51.148;13.738;2024-02-14T14:21:36;11.70;99.90
25250;DHT22;13201;51.148;13.738;2024-02-14T14:24:03;11.80;99.90
25250;DHT22;13201;51.148;13.738;2024-02-14T14:26:29;11.80;99.90
25250;DHT22;13201;51.148;13.738;2024-02-14T14:28:55;11.90;99.90
25250;DHT22;13201;51.148;13.738;2024-02-14T14:31:20;11.80;99.90
25250;DHT22;13201;51.148;13.738;2024-02-14T14:33:46;11.80;99.90
25250;DHT22;13201;51.148;13.738;2024-02-14T14:36:12;11.80;99.90
25250;DHT22;13201;51.148;13.738;2024-02-14T14:38:37;11.80;99.90
25250;DHT22;13201;51.148;13.738;2024-02-14T14:41:06;11.60;99.90
25250;DHT22;13201;51.148;13.738;2024-02-14T14:43:31;11.70;99.90
25250;DHT22;13201;51.148;13.738;2024-02-14T14:45:57;11.60;99.90
25250;DHT22;13201;51.148;13.738;2024-02-14T14:48:23;11.50;99.90
25250;DHT22;13201;51.148;13.738;2024-02-14T14:50:48;11.60;99.90
25250;DHT22;13201;51.148;13.738;2024-02-14T14:53:15;11.70;99.90
25250;DHT22;13201;51.148;13.738;2024-02-14T14:55:51;11.70;99.90
25250;DHT22;13201;51.148;13.738;2024-02-14T14:58:16;11.80;99.90
25250;DHT22;13201;51.148;13.738;2024-02-14T15:00:43;11.70;99.90
25250;DHT22;13201;51.148;13.738;2024-02-14T15:03:09;11.60;99.90
25250;DHT22;13201;51.148;13.738;2024-02-14T15:05:37;11.70;99.90
25250;DHT22;13201;51.148;13.738;2024-02-14T15:08:04;11.60;99.90
25250;DHT22;13201;51.148;13.738;2024-02-14T15:10:30;11.50;99.90
25250;DHT22;13201;51.148;13.738;2024-02-14T15:12:56;11.40;99.90
25250;DHT22;13201;51.148;13.738;2024-02-14T15:15:21;11.30;99.90
25250;DHT22;13201;51.148;13.738;2024-02-14T15:17:47;11.30;99.90
25250;DHT22;13201;51.148;13.738;2024-02-14T15:20:12;11.30;99.90
25250;DHT22;13201;51.148;13.738;2024-02-14T15:22:38;11.40;99.90
25250;DHT22;13201;51.148;13.738;2024-02-14T15:25:04;11.30;99.90
25250;DHT22;13201;51.148;13.738;2024-02-14T15:27:30;11.40;99.90
25250;DHT22;13201;51.148;13.738;2024-02-14T15:29:58;11.30;99.90
25250;DHT22;13201;51.148;13.738;2024-02-14T15:32:42;11.40;99.90
25250;DHT22;13201;51.148;13.738;2024-02-14T15:35:26;11.40;99.90
25250;DHT22;13201;51.148;13.738;2024-02-14T15:37:51;11.30;99.90
25250;DHT22;13201;51.148;13.738;2024-02-14T15:40:18;11.20;99.90
25250;DHT22;13201;51.148;13.738;2024-02-14T15:42:44;11.20;99.90
25250;DHT22;13201;51.148;13.738;2024-02-14T15:45:10;11.30;99.90
25250;DHT22;13201;51.148;13.738;2024-02-14T15:47:46;11.30;99.90